createdAt,value
2019-05-30T00:01:22.861Z,85.31
2019-05-30T00:03:56.013Z,84.76
2019-05-30T00:06:28.256Z,85.03
2019-05-30T00:09:00.524Z,85.13
2019-05-30T00:11:32.949Z,86.06
2019-05-30T00:14:05.069Z,85.95
2019-05-30T00:16:36.754Z,86.57
2019-05-30T00:19:08.571Z,86.15
2019-05-30T00:21:41.256Z,86.29
2019-05-30T00:24:12.998Z,86.94
2019-05-30T00:26:44.716Z,87.17
2019-05-30T00:29:16.538Z,87.76
2019-05-30T00:31:48.257Z,87.48
2019-05-30T00:34:19.987Z,87.62
2019-05-30T00:36:51.802Z,87.58
2019-05-30T00:39:23.518Z,88.54
2019-05-30T00:41:56.019Z,89.31
2019-05-30T00:44:28.236Z,89.49
2019-05-30T00:47:00.636Z,89.84
2019-05-30T00:49:32.748Z,89.26
2019-05-30T00:52:05.123Z,88.70
2019-05-30T00:54:39.603Z,88.87
2019-05-30T00:57:11.327Z,89.47
2019-05-30T00:59:43.153Z,89.00
2019-05-30T01:02:14.883Z,88.98
2019-05-30T01:04:46.603Z,88.78
2019-05-30T01:07:18.435Z,88.90
2019-05-30T01:09:50.145Z,88.68
2019-05-30T01:12:21.941Z,88.97
2019-05-30T01:14:53.716Z,88.96
2019-05-30T01:17:25.431Z,88.30
2019-05-30T01:19:57.164Z,88.40
2019-05-30T01:22:29.752Z,88.94
2019-05-30T01:25:01.670Z,89.25
2019-05-30T01:27:33.385Z,89.38
2019-05-30T01:30:08.449Z,90.15
2019-05-30T01:32:40.282Z,90.69
2019-05-30T01:35:12.333Z,91.67
2019-05-30T01:37:44.062Z,91.12
2019-05-30T01:40:17.594Z,91.12
2019-05-30T01:42:49.213Z,91.07
2019-05-30T01:45:21.005Z,91.02
2019-05-30T01:47:52.636Z,92.16
2019-05-30T01:50:24.531Z,91.78
2019-05-30T01:52:56.167Z,91.06
2019-05-30T01:55:28.831Z,91.00
2019-05-30T01:58:01.558Z,91.25
2019-05-30T02:00:41.581Z,91.92
2019-05-30T02:03:13.107Z,90.90
2019-05-30T02:05:44.827Z,91.51
2019-05-30T02:08:16.549Z,91.61
2019-05-30T02:10:48.363Z,91.48
2019-05-30T02:13:20.093Z,91.78
2019-05-30T02:15:51.814Z,91.30
2019-05-30T02:18:23.654Z,91.06
2019-05-30T02:20:55.366Z,91.36
2019-05-30T02:23:27.089Z,91.43
2019-05-30T02:26:00.093Z,91.07
2019-05-30T02:28:31.902Z,91.01
2019-05-30T02:31:05.258Z,90.31
2019-05-30T02:33:36.935Z,90.95
2019-05-30T02:36:10.968Z,90.96
2019-05-30T02:38:42.005Z,91.92
2019-05-30T02:41:13.720Z,90.78
2019-05-30T02:43:45.547Z,91.57
2019-05-30T02:46:17.258Z,91.55
2019-05-30T02:48:58.761Z,90.87
2019-05-30T02:51:22.295Z,90.93
2019-05-30T02:53:54.009Z,91.65
2019-05-30T02:56:26.705Z,91.55
2019-05-30T02:58:58.520Z,91.74
2019-05-30T03:01:30.137Z,92.04
2019-05-30T03:04:03.878Z,91.90
2019-05-30T03:06:35.918Z,91.80
2019-05-30T03:09:10.758Z,91.54
2019-05-30T03:11:42.206Z,91.02
2019-05-30T03:14:19.000Z,91.26
2019-05-30T03:16:47.877Z,90.68
2019-05-30T03:19:19.869Z,90.99
2019-05-30T03:21:51.927Z,91.10
2019-05-30T03:24:23.752Z,91.33
2019-05-30T03:26:55.537Z,91.40
2019-05-30T03:29:27.264Z,91.42
2019-05-30T03:32:33.831Z,91.30
2019-05-30T03:34:33.245Z,91.00
2019-05-30T03:37:09.330Z,87.46
2019-05-30T03:39:38.590Z,75.23
2019-05-30T03:42:11.775Z,66.50
2019-05-30T03:44:43.950Z,62.13
2019-05-30T03:47:19.092Z,56.83
2019-05-30T03:49:52.061Z,50.36
2019-05-30T03:52:25.798Z,47.46
2019-05-30T03:54:57.495Z,46.49
2019-05-30T03:57:42.209Z,42.29
2019-05-30T04:00:38.658Z,40.00
2019-05-30T04:03:46.453Z,37.62
2019-05-30T04:06:23.584Z,35.82
2019-05-30T04:08:59.900Z,35.29
2019-05-30T04:11:41.965Z,34.46
2019-05-30T04:14:19.380Z,33.01
2019-05-30T04:16:50.957Z,30.51
2019-05-30T04:19:22.797Z,30.25
2019-05-30T04:21:54.638Z,29.52
2019-05-30T04:24:26.397Z,28.15
2019-05-30T04:26:58.141Z,25.62
2019-05-30T04:29:29.871Z,26.00
2019-05-30T04:32:02.588Z,26.37
2019-05-30T04:34:34.295Z,25.07
2019-05-30T04:37:06.028Z,23.32
2019-05-30T04:39:37.858Z,21.98
2019-05-30T04:42:11.169Z,21.95
2019-05-30T04:44:42.907Z,21.32
2019-05-30T04:47:15.999Z,21.34
2019-05-30T04:49:47.947Z,21.02
2019-05-30T04:52:23.909Z,20.72
2019-05-30T04:54:53.011Z,21.11
2019-05-30T04:57:26.875Z,20.42
2019-05-30T04:59:58.073Z,18.81
2019-05-30T05:02:29.833Z,19.81
2019-05-30T05:05:01.563Z,19.33
2019-05-30T05:07:34.231Z,19.59
2019-05-30T05:10:09.414Z,19.06
2019-05-30T05:12:41.332Z,18.99
2019-05-30T05:15:14.320Z,18.99
2019-05-30T05:17:46.231Z,18.57
2019-05-30T05:20:19.367Z,18.05
2019-05-30T05:22:51.690Z,18.53
2019-05-30T05:25:23.644Z,17.32
2019-05-30T05:27:55.683Z,17.32
2019-05-30T05:30:28.678Z,18.05
2019-05-30T05:33:00.439Z,17.80
2019-05-30T05:35:32.164Z,18.26
2019-05-30T05:38:03.907Z,18.39
2019-05-30T05:40:35.731Z,18.16
2019-05-30T05:43:07.487Z,17.82
2019-05-30T05:45:39.211Z,18.03
2019-05-30T05:48:10.949Z,18.07
2019-05-30T05:50:42.760Z,18.25
2019-05-30T05:53:14.497Z,17.96
2019-05-30T05:55:46.225Z,19.28
2019-05-30T05:58:19.109Z,19.57
2019-05-30T06:00:51.289Z,19.15
2019-05-30T06:03:24.154Z,19.79
2019-05-30T06:05:56.487Z,19.95
2019-05-30T06:08:28.997Z,20.23
2019-05-30T06:11:00.824Z,20.69
2019-05-30T06:13:32.553Z,20.27
2019-05-30T06:16:04.721Z,20.33
2019-05-30T06:18:36.347Z,20.98
2019-05-30T06:21:08.179Z,21.43
2019-05-30T06:23:39.912Z,22.19
2019-05-30T06:26:11.640Z,19.77
2019-05-30T06:28:43.378Z,21.27
2019-05-30T06:31:15.225Z,21.31
2019-05-30T06:33:46.958Z,20.64
2019-05-30T06:36:18.865Z,21.42
2019-05-30T06:38:51.013Z,21.16
2019-05-30T06:41:23.527Z,21.40
2019-05-30T06:43:55.481Z,22.84
2019-05-30T06:46:28.294Z,20.56
2019-05-30T06:49:00.533Z,22.18
2019-05-30T06:51:32.271Z,22.55
2019-05-30T06:54:04.100Z,22.19
2019-05-30T06:56:35.830Z,20.59
2019-05-30T06:59:07.596Z,21.73
2019-05-30T07:01:39.302Z,22.50
2019-05-30T07:04:11.504Z,22.89
2019-05-30T07:06:44.045Z,22.77
2019-05-30T07:09:15.852Z,22.03
2019-05-30T07:11:47.891Z,20.96
2019-05-30T07:14:21.133Z,22.35
2019-05-30T07:16:52.965Z,20.83
2019-05-30T07:19:25.345Z,21.26
2019-05-30T07:21:57.408Z,21.43
2019-05-30T07:24:29.910Z,21.36
2019-05-30T07:27:04.198Z,21.94
2019-05-30T07:29:36.027Z,22.31
2019-05-30T07:32:07.861Z,22.33
2019-05-30T07:34:39.609Z,20.01
2019-05-30T07:37:11.343Z,20.76
2019-05-30T07:39:43.081Z,22.03
2019-05-30T07:42:14.804Z,20.76
2019-05-30T07:44:46.630Z,21.44
2019-05-30T07:47:18.365Z,21.22
2019-05-30T07:49:50.091Z,20.69
2019-05-30T07:52:22.284Z,19.21
2019-05-30T07:54:53.917Z,19.95
2019-05-30T07:57:26.137Z,22.91
2019-05-30T07:59:58.367Z,20.70
2019-05-30T08:02:30.111Z,21.38
2019-05-30T08:05:01.928Z,22.95
2019-05-30T08:07:34.982Z,20.85
2019-05-30T08:10:09.965Z,23.19
2019-05-30T08:12:41.748Z,22.95
2019-05-30T08:15:14.724Z,22.95
2019-05-30T08:17:46.552Z,23.11
2019-05-30T08:20:20.228Z,23.00
2019-05-30T08:22:51.853Z,23.38
2019-05-30T08:25:23.677Z,23.97
2019-05-30T08:27:55.406Z,22.73
2019-05-30T08:30:28.316Z,23.22
2019-05-30T08:33:00.508Z,22.69
2019-05-30T08:35:46.898Z,24.35
2019-05-30T08:38:05.772Z,26.00
2019-05-30T08:40:37.817Z,25.54
2019-05-30T08:43:09.921Z,26.04
2019-05-30T08:45:41.808Z,24.42
2019-05-30T08:48:14.773Z,25.94
2019-05-30T08:50:46.408Z,26.13
2019-05-30T08:53:18.612Z,27.75
2019-05-30T08:55:50.242Z,25.89
2019-05-30T08:58:22.079Z,27.35
2019-05-30T09:00:53.812Z,27.46
2019-05-30T09:03:25.542Z,28.33
2019-05-30T09:06:03.686Z,27.51
2019-05-30T09:08:30.606Z,28.57
2019-05-30T09:11:02.334Z,28.12
2019-05-30T09:13:34.163Z,29.00
2019-05-30T09:16:06.074Z,28.12
2019-05-30T09:18:38.556Z,28.94
2019-05-30T09:21:11.535Z,28.06
2019-05-30T09:23:44.015Z,29.19
2019-05-30T09:26:15.682Z,29.73
2019-05-30T09:28:48.301Z,27.58
2019-05-30T09:31:21.363Z,28.81
2019-05-30T09:33:53.100Z,28.90
2019-05-30T09:36:24.826Z,28.31
2019-05-30T09:38:56.668Z,29.41
2019-05-30T09:41:28.391Z,29.81
2019-05-30T09:44:00.121Z,29.16
2019-05-30T09:46:31.843Z,29.55
2019-05-30T09:49:03.653Z,26.87
2019-05-30T09:51:35.468Z,26.45
2019-05-30T09:54:07.259Z,30.06
2019-05-30T09:56:38.886Z,28.42
2019-05-30T09:59:10.718Z,27.67
2019-05-30T10:01:43.167Z,28.94
2019-05-30T10:04:15.771Z,28.08
2019-05-30T10:06:48.449Z,29.10
2019-05-30T10:09:20.496Z,29.16
2019-05-30T10:11:53.400Z,27.00
2019-05-30T10:14:25.529Z,29.71
2019-05-30T10:16:58.156Z,26.96
2019-05-30T10:19:30.314Z,29.44
2019-05-30T10:22:02.079Z,27.83
2019-05-30T10:24:33.807Z,27.64
2019-05-30T10:27:05.533Z,28.82
2019-05-30T10:29:37.646Z,27.89
2019-05-30T10:32:09.368Z,27.87
2019-05-30T10:34:41.102Z,29.71
2019-05-30T10:37:12.939Z,29.96
2019-05-30T10:39:45.681Z,28.48
2019-05-30T10:42:18.228Z,29.66
2019-05-30T10:44:51.863Z,27.78
2019-05-30T10:47:23.595Z,27.56
2019-05-30T10:49:55.429Z,29.07
2019-05-30T10:52:27.150Z,28.04
2019-05-30T10:54:58.889Z,28.04
2019-05-30T10:57:30.620Z,26.71
2019-05-30T11:00:02.618Z,27.51
2019-05-30T11:02:34.527Z,26.99
2019-05-30T11:05:10.658Z,28.64
2019-05-30T11:08:06.337Z,27.18
2019-05-30T11:10:46.732Z,27.75
2019-05-30T11:13:19.001Z,30.75
2019-05-30T11:15:51.721Z,28.73
2019-05-30T11:18:23.729Z,27.85
2019-05-30T11:20:56.411Z,28.74
2019-05-30T11:23:28.181Z,28.70
2019-05-30T11:25:59.926Z,28.53
2019-05-30T11:28:31.661Z,28.60
2019-05-30T11:31:04.808Z,28.27
2019-05-30T11:33:37.090Z,27.53
2019-05-30T11:36:08.817Z,26.28
2019-05-30T11:38:40.552Z,26.04
2019-05-30T11:41:12.385Z,25.25
2019-05-30T11:43:44.191Z,27.88
2019-05-30T11:46:15.826Z,29.04
2019-05-30T11:48:47.660Z,26.43
2019-05-30T11:51:19.390Z,25.43
2019-05-30T11:53:51.822Z,29.49
2019-05-30T11:56:23.496Z,30.25
2019-05-30T11:58:55.999Z,31.47
2019-05-30T12:01:27.638Z,31.85
2019-05-30T12:04:00.687Z,30.57
2019-05-30T12:06:33.995Z,29.33
2019-05-30T12:09:08.061Z,30.52
2019-05-30T12:11:39.619Z,31.17
2019-05-30T12:14:11.345Z,30.47
2019-05-30T12:16:43.083Z,30.84
2019-05-30T12:19:14.825Z,31.55
2019-05-30T12:21:46.554Z,31.31
2019-05-30T12:24:18.578Z,32.60
2019-05-30T12:26:50.414Z,32.15
2019-05-30T12:29:22.233Z,31.48
2019-05-30T12:31:57.565Z,30.49
2019-05-30T12:34:27.304Z,29.81
2019-05-30T12:36:59.047Z,31.45
2019-05-30T12:39:32.715Z,31.72
2019-05-30T12:42:04.727Z,31.97
2019-05-30T12:44:37.989Z,32.46
2019-05-30T12:47:09.706Z,32.00
2019-05-30T12:49:42.401Z,32.43
2019-05-30T12:52:14.136Z,33.67
2019-05-30T12:54:45.977Z,32.18
2019-05-30T12:57:17.721Z,30.91
2019-05-30T12:59:49.448Z,31.08
2019-05-30T13:02:21.198Z,31.37
2019-05-30T13:04:52.925Z,34.18
2019-05-30T13:07:24.784Z,33.09
2019-05-30T13:09:57.129Z,30.99
2019-05-30T13:12:29.162Z,32.18
2019-05-30T13:15:01.912Z,32.32
2019-05-30T13:17:34.241Z,33.73
2019-05-30T13:20:10.813Z,32.55
2019-05-30T13:22:43.593Z,31.29
2019-05-30T13:25:18.383Z,32.32
2019-05-30T13:27:50.144Z,32.44
2019-05-30T13:30:22.471Z,32.66
2019-05-30T13:32:54.718Z,32.01
2019-05-30T13:35:28.237Z,33.15
2019-05-30T15:36:39.338Z,31.98
2019-05-30T15:39:11.085Z,34.32
2019-05-30T15:41:42.808Z,32.42
2019-05-30T15:44:15.715Z,32.21
2019-05-30T15:46:47.907Z,35.79
2019-05-30T15:49:20.631Z,32.02
2019-05-30T15:51:52.670Z,32.42
2019-05-30T15:54:24.411Z,35.60
2019-05-30T15:56:56.214Z,33.95
2019-05-30T15:59:27.961Z,31.80
2019-05-30T16:01:59.721Z,33.07
2019-05-30T16:04:31.448Z,31.71
2019-05-30T16:07:03.203Z,34.70
2019-05-30T16:09:46.777Z,33.03
2019-05-30T16:12:13.007Z,36.29
2019-05-30T16:14:49.729Z,31.67
2019-05-30T16:17:21.824Z,31.76
2019-05-30T16:19:53.533Z,34.86
2019-05-30T16:22:25.570Z,33.27
2019-05-30T16:24:57.504Z,34.15
2019-05-30T16:27:31.323Z,32.93
2019-05-30T16:30:03.829Z,33.81
2019-05-30T16:32:36.062Z,34.61
2019-05-30T16:35:09.050Z,33.86
2019-05-30T16:37:41.022Z,33.16
2019-05-30T16:40:14.495Z,36.01
2019-05-30T16:42:46.555Z,35.04
2019-05-30T16:45:24.631Z,34.56
2019-05-30T16:47:53.664Z,33.43
2019-05-30T16:50:27.014Z,34.12
2019-05-30T16:53:01.335Z,34.94
2019-05-30T16:55:33.134Z,35.96
2019-05-30T16:58:05.198Z,34.12
2019-05-30T17:00:36.865Z,33.60
2019-05-30T17:03:08.746Z,34.98
2019-05-30T17:05:40.605Z,35.34
2019-05-30T17:08:12.470Z,34.86
2019-05-30T17:10:44.298Z,35.56
2019-05-30T17:13:15.941Z,38.50
2019-05-30T17:15:48.481Z,34.42
2019-05-30T17:18:20.304Z,35.60
2019-05-30T17:20:52.177Z,36.64
2019-05-30T17:23:24.854Z,35.64
2019-05-30T17:25:57.030Z,35.25
2019-05-30T17:28:30.096Z,35.50
2019-05-30T17:31:02.014Z,34.90
2019-05-30T17:33:33.859Z,35.98
2019-05-30T17:36:06.125Z,38.37
2019-05-30T17:38:37.893Z,35.82
2019-05-30T17:41:09.761Z,36.08
2019-05-30T17:43:41.951Z,35.64
2019-05-30T17:46:13.790Z,36.48
2019-05-30T17:48:45.837Z,37.79
2019-05-30T17:51:19.775Z,38.92
2019-05-30T17:53:51.504Z,37.31
2019-05-30T17:56:23.968Z,39.08
2019-05-30T17:58:56.078Z,37.92
2019-05-30T18:01:30.559Z,38.15
2019-05-30T18:04:02.505Z,38.38
2019-05-30T18:06:34.299Z,39.16
2019-05-30T18:09:08.406Z,39.74
2019-05-30T18:11:39.960Z,39.91
2019-05-30T18:14:11.816Z,40.70
2019-05-30T18:16:44.449Z,40.76
2019-05-30T18:19:16.173Z,41.24
2019-05-30T18:21:47.944Z,41.51
2019-05-30T18:24:21.435Z,42.14
2019-05-30T18:26:53.252Z,42.83
2019-05-30T18:29:26.045Z,43.61
2019-05-30T18:31:59.554Z,44.19
2019-05-30T18:34:32.786Z,44.43
2019-05-30T18:37:05.293Z,44.74
2019-05-30T18:39:36.934Z,45.71
2019-05-30T18:42:08.686Z,45.99
2019-05-30T18:44:40.442Z,47.49
2019-05-30T18:47:12.179Z,50.02
2019-05-30T18:49:44.019Z,53.38
2019-05-30T18:52:17.357Z,53.89
2019-05-30T18:54:49.306Z,55.95
2019-05-30T18:57:21.054Z,56.73
2019-05-30T18:59:52.907Z,57.69
2019-05-30T19:02:25.134Z,57.67
2019-05-30T19:04:57.120Z,57.73
2019-05-30T19:07:37.194Z,60.15
2019-05-30T19:10:11.543Z,61.84
2019-05-30T19:12:43.722Z,63.42
2019-05-30T19:15:18.031Z,63.78
2019-05-30T19:17:52.459Z,62.74
2019-05-30T19:20:25.551Z,63.37
2019-05-30T19:22:57.670Z,66.01
2019-05-30T19:25:29.971Z,67.19
2019-05-30T19:28:02.155Z,67.41
2019-05-30T19:30:34.889Z,68.13
2019-05-30T19:33:08.570Z,69.57
2019-05-30T19:35:41.530Z,70.39
2019-05-30T19:38:15.215Z,71.53
2019-05-30T19:40:47.187Z,71.58
2019-05-30T19:43:18.831Z,72.53
2019-05-30T19:45:50.766Z,72.08
2019-05-30T19:48:23.664Z,73.21
2019-05-30T19:50:55.423Z,73.74
2019-05-30T19:53:28.793Z,74.69
2019-05-30T19:56:01.448Z,74.79
2019-05-30T19:58:33.500Z,75.10
2019-05-30T20:01:07.671Z,76.13
2019-05-30T20:03:45.164Z,76.24
2019-05-30T20:06:14.747Z,76.51
2019-05-30T20:08:55.514Z,77.38
2019-05-30T20:11:26.684Z,77.44
2019-05-30T20:13:58.671Z,77.94
2019-05-30T20:16:31.391Z,78.39
2019-05-30T20:19:04.871Z,79.19
2019-05-30T20:21:37.790Z,79.60
2019-05-30T20:24:10.254Z,78.66
2019-05-30T20:26:45.584Z,79.09
2019-05-30T20:29:21.167Z,79.30
2019-05-30T20:31:58.658Z,80.46
2019-05-30T20:34:31.372Z,80.19
2019-05-30T20:37:09.626Z,80.21
2019-05-30T20:39:50.133Z,80.35
2019-05-30T20:42:24.667Z,80.39
2019-05-30T20:44:56.589Z,80.56
2019-05-30T20:47:36.021Z,81.10
2019-05-30T20:50:10.318Z,81.38
2019-05-30T20:52:45.592Z,81.96
2019-05-30T20:55:18.722Z,81.68
2019-05-30T20:57:50.351Z,81.82
2019-05-30T21:00:25.501Z,81.82
2019-05-30T21:02:59.898Z,81.05
2019-05-30T21:05:31.661Z,80.94
2019-05-30T21:08:06.152Z,81.76
2019-05-30T21:10:41.526Z,82.77
2019-05-30T21:13:16.734Z,82.88
2019-05-30T21:15:50.825Z,84.12
2019-05-30T21:18:25.292Z,83.62
2019-05-30T21:20:57.694Z,83.18
2019-05-30T21:23:29.639Z,84.24
2019-05-30T21:26:01.448Z,84.08
2019-05-30T21:28:33.105Z,83.93
2019-05-30T21:31:04.828Z,84.24
2019-05-30T21:33:37.519Z,84.58
2019-05-30T21:36:09.666Z,84.01
2019-05-30T21:38:41.947Z,83.95
2019-05-30T21:41:13.933Z,84.30
2019-05-30T21:43:46.790Z,84.01
2019-05-30T21:46:19.180Z,83.76
2019-05-30T21:48:50.916Z,84.06
2019-05-30T21:51:22.651Z,85.92
2019-05-30T21:53:55.735Z,84.26
2019-05-30T21:56:27.417Z,84.48
2019-05-30T21:59:00.016Z,84.06
2019-05-30T22:01:34.769Z,84.35
2019-05-30T22:04:08.139Z,84.67
2019-05-30T22:06:40.843Z,84.84
2019-05-30T22:09:12.797Z,84.81
2019-05-30T22:11:45.577Z,84.57
2019-05-30T22:14:17.870Z,84.72
2019-05-30T22:16:50.248Z,84.86
2019-05-30T22:19:23.016Z,84.94
2019-05-30T22:21:54.820Z,84.86
2019-05-30T22:24:26.982Z,85.34
2019-05-30T22:26:58.617Z,86.25
2019-05-30T22:29:30.373Z,85.65
2019-05-30T22:32:02.788Z,85.97
2019-05-30T22:34:34.528Z,86.36
2019-05-30T22:37:06.581Z,86.50
2019-05-30T22:39:38.622Z,86.17
2019-05-30T22:42:10.379Z,85.70
2019-05-30T22:44:42.101Z,85.96
2019-05-30T22:47:13.946Z,86.14
2019-05-30T22:49:46.700Z,86.68
2019-05-30T22:52:18.794Z,86.38
2019-05-30T22:54:51.225Z,86.67
2019-05-30T22:57:23.360Z,86.94
2019-05-30T22:59:55.199Z,87.25
2019-05-30T23:02:26.932Z,86.78
2019-05-30T23:04:58.669Z,87.18
2019-05-30T23:07:30.535Z,87.42
2019-05-30T23:10:05.774Z,87.56
2019-05-30T23:12:37.603Z,88.06
2019-05-30T23:15:10.542Z,88.45
2019-05-30T23:17:42.376Z,88.40
2019-05-30T23:20:15.970Z,88.91
2019-05-30T23:22:48.837Z,88.49
2019-05-30T23:25:21.904Z,88.18
2019-05-30T23:27:53.733Z,88.07
2019-05-30T23:30:27.066Z,87.97
2019-05-30T23:32:58.773Z,87.87
2019-05-30T23:35:30.511Z,88.54
2019-05-30T23:38:02.306Z,88.51
2019-05-30T23:40:35.619Z,88.28
2019-05-30T23:43:07.581Z,88.59
2019-05-30T23:45:39.395Z,88.51
2019-05-30T23:48:11.122Z,88.58
2019-05-30T23:50:43.023Z,88.54
2019-05-30T23:53:14.651Z,88.30
2019-05-30T23:55:46.481Z,89.31
2019-05-30T23:58:18.211Z,89.08
